Hamm-Lippewiesen Airport

EDLH · North Rhine-Westphalia, 德国

罗盘
风向 的 风向 240°
风: 16 kt, 4 beaufort

添加一条跑道以查看侧风和逆风信息。

添置 跑道
0 ft 1.000 2.000 3.000 4.000 5.000
Cloud Cloud Cloud Cloud Cloud Cloud
BKN 2.100
Cloud Cloud Cloud Cloud Cloud Cloud
BKN 2.600
Cloud Cloud Cloud Cloud Cloud Cloud
BKN 3.000
METAR EDLW 011120Z 24016KT 9999 BKN021 BKN026 BKN030 06/02 Q1017

METAR Hamm-Lippewiesen Airport - EDLH

Hamm-Lippewiesen Airport是,德国中的小机场。 视场标高为190 ft。 该领域的国际民航组织标志是EDLH.

这份报告是针对2023年2月1日 12:20, 当地时间在Dortmund Airport进行的。

机场观察

风向为240°,速度为16 kt。

可见度为10 km 或者更多。

有碎云在2.100 ft的高度, 碎云在2.600 ft的高度 和 碎云在3.000 ft的高度。 破损或更高的上限为2.100 ft。

温度为6 °C,阵风为0 °C。 露点为2 °C,相对湿度为76%。 海平面上的气压为1017 hPa (QNH)。

白天

今天,太阳从08:07升起,在17:16降落。 这适用于Hamm-Lippewiesen Airport,世界夏令时可能有所不同。 当地时间与世界标准时间之间的时差为+1 小时。 当前,没有夏令时有效。

公司介绍

在这个机场,你可以找到飞行俱乐部。 本场上唯一已知的公司是Luftsportclub Hamm e.V.。

体会

到Vliegles.nl去找飞行课程,跳伞和其他飞行体验。 浏览页面,了解Hamm-Lippewiesen Airport附近所有可用的活动。 你也可以使用搜索功能来寻找你所在地附近的特定飞行课程、跳伞或其他飞行体验。

乌云

2.100 ft BKN 碎云
2.600 ft BKN 碎云
3.000 ft BKN 碎云

温度 & 天气

温度 6 °C
露点 2 °C
相对湿度 76%
风寒 0 °C
Kp-index 0 (0-9)

白天

日出
08:07
中午
12:43
日落
17:18 (4:44)

小工具

你想在你的网站上有一个关于Hamm-Lippewiesen Airport的当前航空天气(METAR)的小部件吗?

显示HTML代码

我们和第三方通过cookies跟踪您在我们网站上的互联网行为。如果你继续,我们认为你同意我们的饼干政策